Time;durP1;ratioP1;P1;durP2;ratioP2;P2;SDS_P1;SDS_P2;PMS_P1;PMS_P2;Temp;Humidity;BMP_temperature;BMP_pressure;BME280_temperature;BME280_humidity;BME280_pressure;Samples;Min_cycle;Max_cycle;Signal;HPM_P1;HPM_P2
2022/11/03 00:02:30;;;;;;;48.73;30.37;;;23.10;92.30;;;;;;1809629;78;21153;-82
2022/11/03 00:06:03;;;;;;;48.78;33.10;;;23.10;91.90;;;;;;1756543;80;21641;-83
2022/11/03 00:07:33;;;;;;;47.70;33.48;;;23.10;91.90;;;;;;1794303;78;21598;-81
2022/11/03 00:10:04;;;;;;;40.25;27.45;;;23.10;91.90;;;;;;1755754;80;21082;-83
2022/11/03 00:12:35;;;;;;;34.92;24.75;;;23.10;91.50;;;;;;1805966;78;21619;-83
2022/11/03 00:15:07;;;;;;;51.48;33.98;;;23.10;91.20;;;;;;1835664;78;21173;-82
2022/11/03 00:17:38;;;;;;;48.40;34.45;;;23.20;91.60;;;;;;1811554;78;21157;-83
2022/11/03 00:20:10;;;;;;;43.83;25.72;;;23.20;91.30;;;;;;1747847;81;21153;-83
2022/11/03 00:22:41;;;;;;;31.33;23.22;;;23.20;91.10;;;;;;1757339;81;21148;-86
2022/11/03 00:25:12;;;;;;;35.40;24.43;;;23.30;91.00;;;;;;1777843;79;21229;-86
2022/11/03 00:27:43;;;;;;;30.02;22.20;;;23.30;90.80;;;;;;1779440;79;21134;-84
2022/11/03 00:30:17;;;;;;;33.42;23.45;;;23.30;90.80;;;;;;1777095;79;22584;-84
2022/11/03 00:32:47;;;;;;;36.35;23.32;;;23.30;90.70;;;;;;1762726;79;21183;-82
2022/11/03 00:35:18;;;;;;;35.52;25.05;;;23.40;90.90;;;;;;1771462;79;21136;-82
2022/11/03 00:37:49;;;;;;;39.20;23.60;;;23.50;90.80;;;;;;1778370;80;21151;-82
2022/11/03 00:40:20;;;;;;;39.25;24.72;;;23.50;90.60;;;;;;1771606;79;21151;-83
2022/11/03 00:42:51;;;;;;;35.35;24.98;;;23.50;90.60;;;;;;1784516;79;21127;-81
2022/11/03 00:45:22;;;;;;;37.55;26.15;;;23.60;90.60;;;;;;1762579;79;21076;-83
2022/11/03 00:48:38;;;;;;;32.95;25.05;;;23.70;90.40;;;;;;1775847;79;21309;-82
2022/11/03 00:50:32;;;;;;;38.90;25.40;;;23.70;90.30;;;;;;1780872;79;21111;-81
2022/11/03 00:53:02;;;;;;;40.80;25.60;;;23.80;90.10;;;;;;1775451;79;21125;-82
2022/11/03 00:55:34;;;;;;;36.58;24.43;;;23.80;90.10;;;;;;1773610;79;21134;-82
2022/11/03 00:58:05;;;;;;;35.03;23.62;;;23.90;89.90;;;;;;1751914;81;21185;-82
2022/11/03 01:00:40;;;;;;;37.17;23.65;;;23.90;89.70;;;;;;1763396;79;21096;-82
2022/11/03 01:03:12;;;;;;;30.88;24.52;;;23.90;89.80;;;;;;1733384;81;21159;-83
2022/11/03 01:08:37;;;;;;;33.95;24.35;;;24.00;89.80;;;;;;1728976;82;21160;-81
2022/11/03 01:13:59;;;;;;;41.50;25.00;;;24.00;89.90;;;;;;1769610;80;21147;-86
2022/11/03 01:16:30;;;;;;;33.15;24.00;;;24.00;90.10;;;;;;1807120;78;21678;-83
2022/11/03 01:19:01;;;;;;;35.10;24.40;;;24.00;90.10;;;;;;1750125;80;21164;-83
2022/11/03 01:21:35;;;;;;;39.55;25.55;;;24.00;89.90;;;;;;1805753;78;21106;-83
2022/11/03 01:24:07;;;;;;;38.38;26.70;;;24.00;89.90;;;;;;1749724;81;21204;-82
2022/11/03 01:26:38;;;;;;;34.92;25.20;;;24.10;89.70;;;;;;1808235;78;21074;-82
2022/11/03 01:29:11;;;;;;;34.55;25.48;;;24.10;89.50;;;;;;1769516;80;21774;-83
2022/11/03 01:31:44;;;;;;;38.58;25.52;;;24.20;89.50;;;;;;1817122;78;21141;-82
2022/11/03 01:34:19;;;;;;;35.70;23.70;;;24.20;89.10;;;;;;1809065;78;21161;-83
2022/11/03 01:36:50;;;;;;;35.05;24.90;;;24.30;88.60;;;;;;1806681;78;21126;-83
2022/11/03 01:39:21;;;;;;;38.25;25.65;;;24.30;88.60;;;;;;1748842;81;21153;-82
2022/11/03 01:41:53;;;;;;;39.88;26.62;;;24.30;88.60;;;;;;1751602;81;21271;-81
2022/11/03 01:44:29;;;;;;;39.27;24.12;;;24.30;88.40;;;;;;1760112;81;21187;-83
2022/11/03 01:47:16;;;;;;;27.87;20.10;;;24.30;88.70;;;;;;1811723;78;21307;-83
2022/11/03 01:50:11;;;;;;;27.75;17.32;;;24.40;87.30;;;;;;1768477;80;21247;-81
2022/11/03 01:52:45;;;;;;;26.30;18.30;;;24.40;84.80;;;;;;1801554;78;21712;-72
2022/11/03 01:55:18;;;;;;;25.97;16.55;;;24.50;85.30;;;;;;1799738;78;21271;-71
2022/11/03 01:57:58;;;;;;;26.90;17.27;;;24.60;84.10;;;;;;1814182;78;21594;-73
2022/11/03 02:00:29;;;;;;;26.93;18.50;;;24.70;82.40;;;;;;1768351;80;21157;-74
2022/11/03 02:03:01;;;;;;;25.55;17.17;;;24.80;81.90;;;;;;1807900;78;21595;-74
2022/11/03 02:05:32;;;;;;;24.55;16.50;;;24.80;81.90;;;;;;1750771;80;21151;-73
2022/11/03 02:08:05;;;;;;;22.85;16.70;;;24.90;80.00;;;;;;1767507;80;22425;-73
2022/11/03 02:10:38;;;;;;;22.55;15.48;;;25.00;80.00;;;;;;1781295;80;21239;-74
2022/11/03 02:13:15;;;;;;;21.27;14.58;;;25.00;78.80;;;;;;1789502;79;21101;-74
2022/11/03 02:15:47;;;;;;;19.82;15.10;;;25.00;78.70;;;;;;1763107;80;21252;-72
2022/11/03 02:18:22;;;;;;;21.77;16.10;;;25.10;79.50;;;;;;1772300;80;21730;-72
2022/11/03 02:21:04;;;;;;;26.93;17.17;;;25.10;79.40;;;;;;1730800;82;21246;-73
2022/11/03 02:23:40;;;;;;;25.68;17.42;;;25.20;79.50;;;;;;1775308;80;21137;-72
2022/11/03 02:26:15;;;;;;;25.10;17.10;;;25.30;79.60;;;;;;1720260;82;21265;-73
2022/11/03 02:28:46;;;;;;;25.48;17.85;;;25.40;79.50;;;;;;1724481;82;21672;-73
2022/11/03 02:31:32;;;;;;;24.80;17.52;;;25.50;78.20;;;;;;1785372;80;21149;-73
2022/11/03 02:34:17;;;;;;;20.82;15.50;;;25.50;78.60;;;;;;1783391;80;21640;-72
2022/11/03 02:37:00;;;;;;;20.45;15.30;;;25.60;78.50;;;;;;1769431;80;21153;-73
2022/11/03 02:39:36;;;;;;;21.33;15.55;;;25.70;78.30;;;;;;1743535;82;21177;-73
2022/11/03 02:42:09;;;;;;;21.48;14.93;;;25.80;78.30;;;;;;1778411;79;21226;-74
2022/11/03 02:44:41;;;;;;;21.20;14.73;;;25.90;78.60;;;;;;1719734;82;21663;-74
2022/11/03 02:47:17;;;;;;;23.00;15.68;;;25.90;77.50;;;;;;1767514;80;21153;-73
2022/11/03 02:49:50;;;;;;;20.80;16.42;;;26.00;77.40;;;;;;1778808;80;21653;-73
2022/11/03 02:52:43;;;;;;;22.85;16.05;;;26.10;76.50;;;;;;1769403;80;21149;-73
2022/11/03 02:55:39;;;;;;;22.62;16.55;;;26.20;76.40;;;;;;1723812;82;21149;-73
2022/11/03 02:58:28;;;;;;;23.47;17.50;;;26.30;76.30;;;;;;1776393;80;21109;-73
2022/11/03 03:01:02;;;;;;;26.55;16.93;;;26.40;77.80;;;;;;1782367;80;21096;-74
2022/11/03 03:03:41;;;;;;;24.43;17.05;;;26.50;77.30;;;;;;1723428;82;21206;-71
2022/11/03 03:06:15;;;;;;;17.95;13.43;;;26.60;76.20;;;;;;1760172;80;21666;-73
2022/11/03 03:08:48;;;;;;;22.22;12.25;;;26.70;74.20;;;;;;1748469;80;21153;-72
2022/11/03 03:11:35;;;;;;;18.67;12.07;;;26.80;72.70;;;;;;1712872;82;21184;-74
2022/11/03 03:13:52;;;;;;;16.45;11.88;;;26.90;69.30;;;;;;1723792;81;21230;-73
2022/11/03 03:16:28;;;;;;;18.73;11.95;;;26.90;68.80;;;;;;1769950;80;21196;-73
2022/11/03 03:19:04;;;;;;;16.75;12.88;;;27.00;70.50;;;;;;1760305;80;21092;-73
2022/11/03 03:21:38;;;;;;;22.52;15.03;;;27.10;71.00;;;;;;1752181;80;21123;-72
2022/11/03 03:24:21;;;;;;;;;;;27.20;72.70;;;;;;1762061;80;22421;-74
2022/11/03 03:26:57;;;;;;;19.30;14.00;;;27.30;72.00;;;;;;1752216;80;20118;-73
2022/11/03 03:29:30;;;;;;;23.25;15.25;;;27.30;70.90;;;;;;1761750;80;21491;-72
2022/11/03 03:32:04;;;;;;;20.90;14.05;;;27.40;71.70;;;;;;1761743;80;21170;-72
2022/11/03 03:34:37;;;;;;;22.50;15.75;;;27.50;72.30;;;;;;1755818;80;21239;-73
2022/11/03 03:37:10;;;;;;;23.12;15.35;;;26.40;76.90;;;;;;1761949;80;21101;-74
2022/11/03 03:39:52;;;;;;;17.60;13.68;;;27.80;82.30;;;;;;1758595;80;21120;-73
2022/11/03 03:42:26;;;;;;;19.55;13.28;;;27.80;71.80;;;;;;1756301;80;21150;-75
2022/11/03 03:44:58;;;;;;;25.75;13.50;;;27.90;71.60;;;;;;1755726;80;21612;-74
2022/11/03 03:47:31;;;;;;;19.48;13.78;;;28.00;70.10;;;;;;1755890;80;21188;-73
2022/11/03 03:50:07;;;;;;;17.23;12.65;;;28.10;69.40;;;;;;1758037;80;21174;-74
2022/11/03 03:52:47;;;;;;;21.80;12.75;;;28.20;68.90;;;;;;1756478;80;21197;-73
2022/11/03 03:55:17;;;;;;;15.20;11.60;;;28.30;66.00;;;;;;1757589;80;21114;-74
2022/11/03 03:57:48;;;;;;;17.00;11.53;;;28.30;66.30;;;;;;1761964;80;21102;-72
2022/11/03 04:00:21;;;;;;;23.65;11.93;;;28.30;65.70;;;;;;1756956;80;21141;-73
2022/11/03 04:02:52;;;;;;;14.65;11.03;;;28.40;65.40;;;;;;1757571;80;21146;-73
2022/11/03 04:05:23;;;;;;;15.38;10.78;;;28.40;66.40;;;;;;1746470;80;21234;-74
2022/11/03 04:07:54;;;;;;;15.40;10.68;;;28.40;66.00;;;;;;1759373;80;21105;-74
2022/11/03 04:10:25;;;;;;;15.15;10.55;;;28.60;66.90;;;;;;1753230;80;21152;-74
2022/11/03 04:24:02;;;;;;;12.98;9.40;;;29.20;71.80;;;;;;1791631;79;21205;-73
2022/11/03 04:26:33;;;;;;;14.45;9.53;;;29.20;66.50;;;;;;1792382;79;21150;-74
2022/11/03 04:29:07;;;;;;;16.02;10.18;;;29.30;66.90;;;;;;1785788;79;21148;-72
2022/11/03 04:31:38;;;;;;;17.52;9.45;;;29.30;59.30;;;;;;1782824;79;21161;-74
2022/11/03 04:34:13;;;;;;;15.40;9.50;;;29.30;63.60;;;;;;1780010;79;21137;-74
2022/11/03 04:36:44;;;;;;;13.85;9.05;;;29.40;59.60;;;;;;1721976;81;21103;-73
2022/11/03 04:39:34;;;;;;;12.37;8.75;;;29.50;58.40;;;;;;1784147;79;21192;-74
2022/11/03 04:42:22;;;;;;;13.85;9.10;;;29.50;58.10;;;;;;1778479;79;21200;-72
2022/11/03 04:44:50;;;;;;;13.00;9.38;;;29.60;58.70;;;;;;1772521;81;21164;-73
2022/11/03 04:47:24;;;;;;;11.33;8.30;;;29.70;57.50;;;;;;1780930;79;21220;-73
2022/11/03 04:49:59;;;;;;;15.43;8.30;;;29.70;58.20;;;;;;1772615;81;21172;-74
2022/11/03 04:52:31;;;;;;;10.93;7.97;;;29.80;56.60;;;;;;1772847;81;21210;-74
2022/11/03 04:55:02;;;;;;;11.63;8.43;;;29.80;56.70;;;;;;1771278;81;21165;-71
2022/11/03 04:57:33;;;;;;;12.80;8.20;;;29.80;57.20;;;;;;1779556;79;21192;-73
2022/11/03 05:00:05;;;;;;;10.05;7.30;;;29.80;55.60;;;;;;1779996;79;21617;-74
2022/11/03 05:02:36;;;;;;;12.63;8.13;;;29.80;55.90;;;;;;1774810;79;21196;-73
2022/11/03 05:05:18;;;;;;;10.03;7.25;;;29.80;56.70;;;;;;1782022;79;21165;-74
2022/11/03 05:07:57;;;;;;;9.60;7.90;;;29.90;55.70;;;;;;1774080;80;21538;-76
2022/11/03 05:10:30;;;;;;;11.50;8.15;;;;;;;;;;1768431;81;21251;-74
2022/11/03 05:13:02;;;;;;;11.40;8.80;;;30.00;56.00;;;;;;1772699;81;21177;-74
2022/11/03 05:15:38;;;;;;;12.88;8.20;;;30.10;55.00;;;;;;1775215;79;21192;-75
2022/11/03 05:18:24;;;;;;;13.50;8.20;;;30.20;55.00;;;;;;1775332;79;21275;-75
2022/11/03 05:21:06;;;;;;;10.25;7.25;;;30.20;53.80;;;;;;1764016;81;21762;-75
2022/11/03 05:23:55;;;;;;;12.07;7.28;;;30.30;56.40;;;;;;1780764;79;21668;-75
2022/11/03 05:26:36;;;;;;;11.97;7.17;;;30.30;55.60;;;;;;1771282;81;21677;-75
2022/11/03 05:29:21;;;;;;;10.08;7.58;;;30.30;53.90;;;;;;1774180;79;21146;-74
2022/11/03 05:31:53;;;;;;;11.30;7.53;;;30.40;52.70;;;;;;1781941;79;21685;-76
2022/11/03 05:34:35;;;;;;;10.20;7.55;;;30.40;52.40;;;;;;1778622;79;21129;-76
2022/11/03 05:37:24;;;;;;;9.73;7.08;;;30.50;54.00;;;;;;1778042;79;21177;-74
2022/11/03 05:40:16;;;;;;;14.00;7.25;;;30.50;53.80;;;;;;1775981;79;21152;-74
2022/11/03 05:42:53;;;;;;;9.48;6.95;;;30.50;52.50;;;;;;1773407;81;21629;-75
2022/11/03 05:45:33;;;;;;;11.33;7.80;;;30.50;51.90;;;;;;1772776;79;21214;-74
2022/11/03 05:48:06;;;;;;;9.63;7.35;;;30.50;51.00;;;;;;1776892;79;21219;-73
2022/11/03 05:50:39;;;;;;;10.53;6.72;;;30.60;50.80;;;;;;1769842;79;22130;-75
2022/11/03 05:53:25;;;;;;;11.90;7.30;;;30.50;51.00;;;;;;1769255;81;22328;-74
2022/11/03 05:55:57;;;;;;;9.53;7.53;;;30.50;52.40;;;;;;1766101;79;21075;-75
2022/11/03 05:58:37;;;;;;;11.43;7.50;;;30.50;52.40;;;;;;1772925;79;21079;-76
2022/11/03 06:01:22;;;;;;;12.25;7.28;;;30.50;52.20;;;;;;1771710;79;21180;-76
2022/11/03 06:03:53;;;;;;;10.82;7.05;;;30.40;51.10;;;;;;1773342;81;21153;-74
2022/11/03 06:06:27;;;;;;;10.82;7.30;;;30.40;51.30;;;;;;1771315;79;21165;-76
2022/11/03 06:09:05;;;;;;;11.80;6.65;;;30.40;52.00;;;;;;1775686;79;21169;-75
2022/11/03 06:11:39;;;;;;;10.32;6.70;;;30.40;50.50;;;;;;1767678;80;21165;-75
2022/11/03 06:14:24;;;;;;;11.03;7.35;;;30.40;51.70;;;;;;1775764;79;21644;-74
2022/11/03 06:17:11;;;;;;;9.40;6.33;;;30.50;52.40;;;;;;1779481;79;21146;-75
2022/11/03 06:19:48;;;;;;;9.95;6.83;;;30.50;51.70;;;;;;1764728;81;21197;-75
2022/11/03 06:22:27;;;;;;;11.48;7.25;;;30.50;52.60;;;;;;1780689;79;21173;-75
2022/11/03 06:25:03;;;;;;;12.23;8.00;;;30.60;51.20;;;;;;1775442;79;21165;-74
2022/11/03 06:27:35;;;;;;;9.85;6.92;;;30.50;51.40;;;;;;1769597;80;21258;-74
2022/11/03 06:30:26;;;;;;;10.18;6.97;;;30.60;51.50;;;;;;1770927;80;21185;-75
2022/11/03 06:33:02;;;;;;;10.10;6.97;;;30.60;50.60;;;;;;1755626;79;21680;-75
2022/11/03 06:35:37;;;;;;;8.48;6.62;;;30.50;51.80;;;;;;1780396;79;21161;-75
2022/11/03 06:38:20;;;;;;;11.28;6.87;;;30.60;51.50;;;;;;1774904;79;21259;-74
2022/11/03 06:40:53;;;;;;;10.63;7.17;;;30.60;52.00;;;;;;1785593;79;22003;-74
2022/11/03 06:43:27;;;;;;;10.65;7.60;;;30.60;51.50;;;;;;1763192;81;21177;-75
2022/11/03 06:46:04;;;;;;;11.73;7.42;;;30.60;53.00;;;;;;1773462;81;21113;-77
2022/11/03 06:48:36;;;;;;;9.38;6.15;;;30.60;51.90;;;;;;1771832;81;21244;-74
2022/11/03 06:51:09;;;;;;;9.05;6.70;;;30.70;51.70;;;;;;1774700;79;21188;-75
2022/11/03 06:53:41;;;;;;;9.68;6.67;;;30.70;52.60;;;;;;1773916;80;21215;-75
2022/11/03 06:56:17;;;;;;;10.78;7.08;;;30.60;51.70;;;;;;1781354;79;21562;-74
2022/11/03 06:58:50;;;;;;;11.22;7.70;;;30.70;51.70;;;;;;1775726;79;21256;-74
2022/11/03 07:01:23;;;;;;;8.55;6.87;;;30.60;51.30;;;;;;1772752;81;21102;-73
2022/11/03 07:04:00;;;;;;;10.75;7.35;;;30.50;51.90;;;;;;1781237;79;21650;-73
2022/11/03 07:06:33;;;;;;;10.93;6.90;;;30.50;52.50;;;;;;1774688;79;21300;-77
2022/11/03 07:09:08;;;;;;;9.83;7.78;;;30.50;52.80;;;;;;1774147;79;21162;-75
2022/11/03 07:11:54;;;;;;;9.13;7.53;;;30.50;52.90;;;;;;1774198;79;21270;-74
2022/11/03 07:14:33;;;;;;;13.30;8.35;;;30.40;52.00;;;;;;1772002;81;21117;-74
2022/11/03 07:17:06;;;;;;;10.53;6.87;;;30.30;52.90;;;;;;1770080;81;21168;-74
2022/11/03 07:19:42;;;;;;;11.85;7.47;;;30.30;52.60;;;;;;1772101;79;21153;-75
2022/11/03 07:22:22;;;;;;;13.50;7.35;;;30.30;52.90;;;;;;1776830;79;21104;-74
2022/11/03 07:24:55;;;;;;;9.88;6.83;;;30.20;52.70;;;;;;1772593;79;21703;-75
2022/11/03 07:27:29;;;;;;;10.75;7.00;;;30.20;53.00;;;;;;1771237;81;21174;-74
2022/11/03 07:30:02;;;;;;;9.88;7.25;;;30.20;52.80;;;;;;1774256;79;21283;-73
2022/11/03 07:32:37;;;;;;;10.45;7.08;;;30.20;52.80;;;;;;1773659;80;21637;-75
2022/11/03 07:35:23;;;;;;;7.72;6.75;;;30.10;53.20;;;;;;1774606;80;21142;-75
2022/11/03 07:37:59;;;;;;;7.80;6.28;;;30.20;53.10;;;;;;1774287;81;21172;-74
2022/11/03 07:40:33;;;;;;;10.35;7.05;;;30.20;52.80;;;;;;1775975;79;21110;-75
2022/11/03 07:43:13;;;;;;;20.08;8.70;;;30.10;52.50;;;;;;1778253;79;21133;-75
2022/11/03 07:45:57;;;;;;;12.03;7.65;;;30.10;52.50;;;;;;1768783;80;21185;-74
2022/11/03 07:48:41;;;;;;;10.30;6.67;;;30.10;53.40;;;;;;1774567;80;21097;-74
2022/11/03 07:51:23;;;;;;;10.18;7.45;;;30.10;53.30;;;;;;1775344;80;21242;-74
2022/11/03 07:54:10;;;;;;;12.47;6.90;;;30.00;53.30;;;;;;1756678;80;21168;-75
2022/11/03 07:56:53;;;;;;;11.00;7.58;;;30.10;53.60;;;;;;1718655;83;21201;-74
2022/11/03 07:59:27;;;;;;;12.58;8.03;;;30.20;55.60;;;;;;1730391;81;21705;-74
2022/11/03 08:01:58;;;;;;;10.63;6.92;;;30.20;54.50;;;;;;1773959;80;21199;-74
2022/11/03 08:04:35;;;;;;;11.75;7.65;;;30.20;53.60;;;;;;1776856;80;21097;-73
2022/11/03 08:07:07;;;;;;;11.03;7.05;;;30.20;53.50;;;;;;1762613;80;21646;-74
2022/11/03 08:09:42;;;;;;;9.70;7.50;;;30.10;53.80;;;;;;1766445;80;21680;-74
2022/11/03 08:15:04;;;;;;;12.23;7.47;;;30.00;54.80;;;;;;1792323;79;21084;-74
2022/11/03 08:17:35;;;;;;;9.48;7.35;;;30.00;54.20;;;;;;1828393;77;21203;-73
2022/11/03 08:20:07;;;;;;;14.00;7.28;;;30.00;54.30;;;;;;1833871;77;21088;-73
2022/11/03 08:22:38;;;;;;;11.55;7.72;;;30.00;54.40;;;;;;1833138;77;21190;-74
2022/11/03 08:25:30;;;;;;;10.82;6.75;;;30.00;54.50;;;;;;1832187;77;21134;-74
2022/11/03 08:28:02;;;;;;;14.05;7.75;;;30.00;54.60;;;;;;1847302;76;21178;-74
2022/11/03 08:30:34;;;;;;;11.28;7.72;;;29.90;54.40;;;;;;1843349;76;21145;-71
2022/11/03 08:33:05;;;;;;;13.55;7.35;;;29.90;53.80;;;;;;1834533;76;21180;-73
2022/11/03 08:35:37;;;;;;;11.48;7.53;;;29.90;53.90;;;;;;1839289;77;21574;-73
2022/11/03 08:38:08;;;;;;;9.18;7.28;;;30.00;53.50;;;;;;1838693;77;21139;-73
2022/11/03 08:40:39;;;;;;;10.88;7.62;;;29.90;53.50;;;;;;1838940;77;21654;-75
2022/11/03 08:43:11;;;;;;;14.28;7.80;;;30.00;54.50;;;;;;1837213;76;21182;-73
2022/11/03 08:45:45;;;;;;;9.65;7.47;;;30.00;53.60;;;;;;1836352;77;21099;-74
2022/11/03 08:48:16;;;;;;;12.33;8.08;;;30.00;54.00;;;;;;1832283;76;21123;-74
2022/11/03 08:50:47;;;;;;;13.03;7.67;;;29.90;54.00;;;;;;1850558;76;21598;-75
2022/11/03 08:53:20;;;;;;;11.38;7.92;;;29.90;53.70;;;;;;1830276;77;21118;-73
2022/11/03 08:55:51;;;;;;;11.65;7.95;;;29.90;54.70;;;;;;1837632;77;21071;-73
2022/11/03 08:58:23;;;;;;;9.88;7.53;;;29.90;54.80;;;;;;1831046;77;21549;-74
2022/11/03 09:00:54;;;;;;;11.85;7.33;;;29.90;54.70;;;;;;1841159;77;21150;-74
2022/11/03 09:03:25;;;;;;;12.90;7.75;;;29.90;54.60;;;;;;1841866;76;21231;-73
2022/11/03 09:05:56;;;;;;;10.13;7.90;;;29.80;54.70;;;;;;1836840;77;21264;-74
2022/11/03 09:08:27;;;;;;;11.18;7.58;;;29.80;55.30;;;;;;1843737;76;21538;-73
2022/11/03 09:11:00;;;;;;;10.55;7.45;;;29.90;54.90;;;;;;1844353;76;21129;-73
2022/11/03 09:13:31;;;;;;;10.20;7.62;;;29.80;55.20;;;;;;1854237;76;21638;-74
2022/11/03 09:16:04;;;;;;;12.10;8.15;;;29.70;55.00;;;;;;1849809;76;21175;-74
2022/11/03 09:18:35;;;;;;;11.10;7.78;;;29.70;55.20;;;;;;1839365;77;21111;-74
2022/11/03 09:21:09;;;;;;;11.35;7.87;;;29.60;55.50;;;;;;1840473;77;21559;-74
2022/11/03 09:23:40;;;;;;;9.35;7.58;;;29.60;55.30;;;;;;1847222;76;21137;-74
2022/11/03 09:26:11;;;;;;;13.10;8.60;;;29.50;55.70;;;;;;1839410;76;21275;-74
2022/11/03 09:28:41;;;;;;;12.75;8.90;;;29.50;56.40;;;;;;1853610;77;21123;-74
2022/11/03 09:31:12;;;;;;;12.98;7.75;;;29.50;56.20;;;;;;1865499;76;21184;-73
2022/11/03 09:33:43;;;;;;;14.13;8.45;;;29.40;56.20;;;;;;1849086;77;21162;-73
2022/11/03 09:36:14;;;;;;;10.95;7.92;;;29.40;57.20;;;;;;1855562;77;21150;-74
2022/11/03 09:38:46;;;;;;;12.40;7.92;;;29.40;56.80;;;;;;1852905;76;21233;-73
2022/11/03 09:41:18;;;;;;;10.78;8.33;;;29.30;56.50;;;;;;1854320;77;21174;-73
2022/11/03 09:43:50;;;;;;;13.40;8.65;;;29.30;56.00;;;;;;1862493;76;21209;-73
2022/11/03 09:46:21;;;;;;;11.18;7.47;;;29.30;56.60;;;;;;1853655;77;21138;-74
2022/11/03 09:48:54;;;;;;;12.63;7.87;;;29.20;56.70;;;;;;1850144;76;21240;-73
2022/11/03 09:51:28;;;;;;;9.53;7.87;;;29.20;56.70;;;;;;1856797;75;21150;-73
2022/11/03 09:54:01;;;;;;;15.30;8.45;;;29.20;57.10;;;;;;1865432;75;21152;-73
2022/11/03 09:56:33;;;;;;;10.68;7.97;;;29.20;57.50;;;;;;1870082;76;21158;-73
2022/11/03 09:59:13;;;;;;;14.55;8.75;;;29.10;58.10;;;;;;1864062;76;21135;-74
2022/11/03 10:01:47;;;;;;;14.58;8.95;;;29.10;58.00;;;;;;1863361;76;21608;-74
2022/11/03 10:04:27;;;;;;;12.03;8.78;;;29.00;58.20;;;;;;1872111;76;21064;-73
2022/11/03 10:06:58;;;;;;;14.40;9.38;;;29.00;59.00;;;;;;1869530;76;21052;-76
2022/11/03 10:09:30;;;;;;;13.60;8.80;;;29.00;58.40;;;;;;1869971;76;21118;-74
2022/11/03 10:12:02;;;;;;;13.72;9.15;;;29.00;58.30;;;;;;1853403;76;21214;-73
2022/11/03 10:14:33;;;;;;;20.08;9.48;;;29.00;58.50;;;;;;1801593;79;21213;-74
2022/11/03 10:17:05;;;;;;;19.48;9.88;;;29.00;58.60;;;;;;1798069;79;21084;-72
2022/11/03 10:19:36;;;;;;;12.15;8.55;;;29.00;58.70;;;;;;1870418;76;21076;-74
2022/11/03 10:22:08;;;;;;;12.40;9.15;;;29.00;58.80;;;;;;1864811;76;21065;-73
2022/11/03 10:24:39;;;;;;;13.60;8.75;;;28.90;58.80;;;;;;1869808;76;21139;-73
2022/11/03 10:27:27;;;;;;;13.98;8.83;;;28.90;58.80;;;;;;1869228;76;21140;-72
2022/11/03 10:30:10;;;;;;;15.65;8.78;;;28.90;59.20;;;;;;1861544;76;21155;-74
2022/11/03 10:32:41;;;;;;;15.35;8.80;;;28.90;59.10;;;;;;1873203;76;21096;-73
2022/11/03 10:35:34;;;;;;;17.55;9.43;;;28.80;59.10;;;;;;1872562;76;21595;-74
2022/11/03 10:38:11;;;;;;;12.73;9.00;;;28.80;59.20;;;;;;1862661;76;21108;-74
2022/11/03 10:40:43;;;;;;;15.72;10.23;;;28.80;59.10;;;;;;1864825;76;21124;-74
2022/11/03 10:43:16;;;;;;;15.45;9.63;;;28.70;59.30;;;;;;1872192;76;21131;-74
2022/11/03 10:45:48;;;;;;;13.38;9.70;;;28.70;59.30;;;;;;1870927;76;21127;-74
2022/11/03 10:48:19;;;;;;;16.85;9.98;;;28.70;59.50;;;;;;1869448;76;21122;-73
2022/11/03 10:50:50;;;;;;;15.98;9.43;;;28.70;59.30;;;;;;1869270;76;21181;-73
2022/11/03 10:53:24;;;;;;;14.95;9.65;;;28.70;59.50;;;;;;1864646;76;21564;-74
2022/11/03 10:55:56;;;;;;;12.10;9.78;;;28.70;59.50;;;;;;1864287;76;21230;-72
2022/11/03 10:58:27;;;;;;;13.05;9.15;;;28.60;59.60;;;;;;1853378;76;21611;-72
2022/11/03 11:00:58;;;;;;;15.05;9.55;;;28.60;59.80;;;;;;1862528;76;21081;-73
2022/11/03 11:03:30;;;;;;;14.63;9.83;;;28.60;59.90;;;;;;1862647;76;21544;-74
2022/11/03 11:06:01;;;;;;;13.03;9.40;;;28.60;59.80;;;;;;1857860;76;21097;-74
2022/11/03 11:08:33;;;;;;;29.67;14.23;;;28.50;60.10;;;;;;1861525;76;21148;-74
2022/11/03 11:11:06;;;;;;;20.08;14.93;;;28.50;60.30;;;;;;1862513;76;21146;-73
2022/11/03 11:13:40;;;;;;;17.00;13.38;;;28.50;60.40;;;;;;1857740;76;21520;-74
2022/11/03 11:16:48;;;;;;;19.02;14.50;;;28.50;60.60;;;;;;1861366;76;21171;-74
2022/11/03 11:19:19;;;;;;;20.60;11.35;;;28.50;60.80;;;;;;1851933;76;21119;-74
2022/11/03 11:21:52;;;;;;;19.65;11.50;;;28.40;60.90;;;;;;1866262;76;21548;-74
2022/11/03 11:24:45;;;;;;;18.65;11.48;;;28.40;60.90;;;;;;1858847;76;21065;-73
2022/11/03 11:27:34;;;;;;;17.35;11.57;;;28.40;61.10;;;;;;1865145;76;21143;-74
2022/11/03 11:30:22;;;;;;;19.62;11.97;;;28.40;60.90;;;;;;1858964;76;21120;-73
2022/11/03 11:33:16;;;;;;;18.73;12.25;;;28.40;60.80;;;;;;1860608;76;21689;-73
2022/11/03 11:35:55;;;;;;;18.80;13.03;;;28.30;60.90;;;;;;1857962;76;21730;-73
2022/11/03 11:38:51;;;;;;;18.37;12.73;;;28.30;61.10;;;;;;1857623;76;21544;-73
2022/11/03 11:41:24;;;;;;;20.20;13.22;;;28.30;61.10;;;;;;1855114;77;21089;-74
2022/11/03 11:43:56;;;;;;;17.12;12.60;;;28.30;61.20;;;;;;1840735;77;21144;-73
2022/11/03 11:46:35;;;;;;;23.20;12.37;;;28.20;61.10;;;;;;1844380;76;21188;-73
2022/11/03 11:49:09;;;;;;;18.85;12.85;;;28.20;61.00;;;;;;1855913;76;21596;-74
2022/11/03 11:51:41;;;;;;;21.25;12.55;;;28.20;61.30;;;;;;1855260;76;21104;-74
2022/11/03 11:54:15;;;;;;;16.97;11.80;;;28.20;61.50;;;;;;1863849;76;21140;-75
2022/11/03 11:56:49;;;;;;;16.45;12.03;;;28.20;61.40;;;;;;1870585;76;21128;-74
2022/11/03 11:59:23;;;;;;;21.60;12.58;;;28.20;61.30;;;;;;1869587;76;21135;-73
2022/11/03 12:01:56;;;;;;;22.55;12.15;;;28.10;61.10;;;;;;1860754;76;21521;-73
2022/11/03 12:04:32;;;;;;;18.98;12.53;;;28.10;61.20;;;;;;1858581;76;21081;-73
2022/11/03 12:07:03;;;;;;;19.42;12.35;;;28.10;61.10;;;;;;1858468;76;21205;-73
2022/11/03 12:09:34;;;;;;;19.02;12.35;;;28.10;60.80;;;;;;1862097;76;21111;-72
2022/11/03 12:12:06;;;;;;;16.73;11.80;;;28.10;61.20;;;;;;1858472;76;21061;-74
2022/11/03 12:14:39;;;;;;;19.92;11.28;;;28.10;61.20;;;;;;1865973;76;21076;-73
2022/11/03 12:17:22;;;;;;;16.80;10.85;;;28.10;61.90;;;;;;1857417;76;21147;-74
2022/11/03 12:19:54;;;;;;;20.25;12.60;;;28.10;62.50;;;;;;1855989;76;21150;-73
2022/11/03 12:22:28;;;;;;;20.95;13.40;;;28.10;62.30;;;;;;1863034;76;21561;-73
2022/11/03 12:25:00;;;;;;;21.27;13.45;;;28.10;61.80;;;;;;1840970;76;21147;-73
2022/11/03 12:27:36;;;;;;;21.80;15.20;;;28.00;61.80;;;;;;1862227;76;21072;-77
2022/11/03 12:30:08;;;;;;;18.87;13.32;;;28.00;61.90;;;;;;1861186;76;21119;-73
2022/11/03 12:32:39;;;;;;;16.55;12.65;;;27.90;62.20;;;;;;1858920;76;21195;-74
2022/11/03 12:35:12;;;;;;;16.48;11.53;;;27.90;63.90;;;;;;1867441;76;21151;-73
2022/11/03 12:37:50;;;;;;;18.00;12.30;;;27.90;64.80;;;;;;1861721;76;21563;-73
2022/11/03 12:40:18;;;;;;;26.00;15.50;;;27.80;64.70;;;;;;1850550;76;21217;-72
2022/11/03 12:42:49;;;;;;;19.87;14.40;;;27.80;63.50;;;;;;1863890;76;21146;-73
2022/11/03 12:45:27;;;;;;;20.10;14.15;;;27.80;63.40;;;;;;1864245;76;21370;-73
2022/11/03 12:48:00;;;;;;;21.00;15.10;;;27.70;64.10;;;;;;1866840;76;21112;-73
2022/11/03 12:50:31;;;;;;;18.45;13.83;;;27.70;64.00;;;;;;1855247;76;21155;-73
2022/11/03 12:53:03;;;;;;;21.93;14.30;;;27.70;64.30;;;;;;1865961;76;21140;-73
2022/11/03 12:55:38;;;;;;;21.77;13.48;;;27.70;64.60;;;;;;1873481;76;21118;-73
2022/11/03 12:58:11;;;;;;;22.40;14.00;;;27.70;65.20;;;;;;1871649;76;21177;-74
2022/11/03 13:00:42;;;;;;;18.98;14.10;;;27.70;66.20;;;;;;1863831;76;21202;-74
2022/11/03 13:03:14;;;;;;;22.52;13.60;;;27.60;66.60;;;;;;1861659;76;21253;-74
2022/11/03 13:05:45;;;;;;;21.35;14.47;;;27.60;66.80;;;;;;1853433;76;21183;-73
2022/11/03 13:08:29;;;;;;;22.60;14.40;;;27.50;67.30;;;;;;1868903;75;21080;-74
2022/11/03 13:11:00;;;;;;;20.43;14.13;;;27.50;67.90;;;;;;1856428;75;21137;-76
2022/11/03 13:13:36;;;;;;;23.92;14.20;;;27.40;68.30;;;;;;1864072;76;21604;-73
2022/11/03 13:16:08;;;;;;;23.90;14.55;;;27.40;68.10;;;;;;1870669;75;21131;-75
2022/11/03 13:18:39;;;;;;;20.57;14.25;;;27.30;68.40;;;;;;1869701;76;21566;-74
2022/11/03 13:21:15;;;;;;;21.97;13.53;;;27.30;68.70;;;;;;1872446;76;21052;-73
2022/11/03 13:23:43;;;;;;;20.88;14.75;;;27.30;69.10;;;;;;1867224;76;21679;-73
2022/11/03 13:26:15;;;;;;;24.20;15.40;;;27.20;68.90;;;;;;1868940;76;21142;-76
2022/11/03 13:28:46;;;;;;;24.15;15.18;;;27.20;69.30;;;;;;1866571;76;21297;-73
2022/11/03 13:31:18;;;;;;;29.55;16.57;;;27.20;70.20;;;;;;1874756;76;21132;-72
2022/11/03 13:33:50;;;;;;;22.93;16.25;;;27.10;70.30;;;;;;1872847;76;21187;-72